Time;durP1;ratioP1;P1;durP2;ratioP2;P2;SDS_P1;SDS_P2;PMS_P1;PMS_P2;Temp;Humidity;BMP_temperature;BMP_pressure;BME280_temperature;BME280_humidity;BME280_pressure;Samples;Min_cycle;Max_cycle;Signal;HPM_P1;HPM_P2
2022/08/14 00:02:03;;;;;;;9.02;5.97;;;24.80;77.80;;;;;;5052309;28;20075;-71
2022/08/14 00:04:30;;;;;;;6.75;5.90;;;24.80;78.00;;;;;;5052822;28;20044;-70
2022/08/14 00:06:55;;;;;;;7.28;5.75;;;24.80;78.20;;;;;;5051231;28;20451;-70
2022/08/14 00:09:22;;;;;;;7.05;5.95;;;24.70;78.30;;;;;;5051963;28;20031;-71
2022/08/14 00:11:47;;;;;;;7.45;6.10;;;24.70;78.40;;;;;;5056642;28;20093;-70
2022/08/14 00:14:15;;;;;;;8.98;6.70;;;24.70;78.60;;;;;;5055873;28;20456;-69
2022/08/14 00:16:41;;;;;;;7.53;5.80;;;24.60;78.80;;;;;;5051044;28;20027;-70
2022/08/14 00:19:07;;;;;;;9.27;6.40;;;24.60;79.00;;;;;;5052925;28;20029;-70
2022/08/14 00:21:33;;;;;;;8.43;5.93;;;24.60;79.10;;;;;;5051043;28;20117;-70
2022/08/14 00:23:58;;;;;;;8.77;5.70;;;24.60;79.20;;;;;;5051738;28;20112;-70
2022/08/14 00:26:24;;;;;;;6.57;5.90;;;24.50;79.30;;;;;;5051708;28;20083;-70
2022/08/14 00:28:51;;;;;;;7.50;5.85;;;24.50;79.50;;;;;;5052680;28;20040;-71
2022/08/14 00:31:17;;;;;;;6.88;6.05;;;24.50;79.70;;;;;;5050373;28;20036;-70
2022/08/14 00:33:44;;;;;;;11.10;6.90;;;24.50;80.00;;;;;;5052015;28;20021;-71
2022/08/14 00:36:10;;;;;;;6.60;5.90;;;24.40;80.20;;;;;;5050746;28;20021;-70
2022/08/14 00:38:35;;;;;;;10.82;6.70;;;24.40;80.30;;;;;;5051766;28;20131;-71
2022/08/14 00:41:06;;;;;;;6.72;5.80;;;24.40;80.30;;;;;;5050811;28;20120;-71
2022/08/14 00:43:36;;;;;;;6.35;5.75;;;24.30;80.40;;;;;;5051875;28;20538;-72
2022/08/14 00:46:05;;;;;;;9.98;6.35;;;24.30;80.90;;;;;;5051202;28;20039;-70
2022/08/14 00:48:31;;;;;;;8.40;6.00;;;24.30;81.00;;;;;;5052108;28;20029;-71
2022/08/14 00:50:57;;;;;;;7.00;6.18;;;24.30;81.10;;;;;;5050341;28;20053;-70
2022/08/14 00:53:24;;;;;;;8.05;5.90;;;24.20;81.40;;;;;;5051890;28;20060;-70
2022/08/14 00:55:50;;;;;;;7.40;6.28;;;24.20;81.60;;;;;;5051434;28;20078;-70
2022/08/14 00:58:32;;;;;;;8.77;6.35;;;24.20;81.70;;;;;;5051701;28;20507;-71
2022/08/14 01:01:08;;;;;;;9.52;6.70;;;24.10;81.90;;;;;;5032443;28;20047;-71
2022/08/14 01:03:36;;;;;;;7.50;6.35;;;24.10;81.90;;;;;;5048862;28;20036;-71
2022/08/14 01:06:02;;;;;;;8.75;6.50;;;24.10;82.40;;;;;;5050708;28;20045;-71
2022/08/14 01:08:30;;;;;;;8.07;6.07;;;24.10;82.30;;;;;;5052002;28;20025;-70
2022/08/14 01:10:58;;;;;;;9.02;7.13;;;24.00;82.50;;;;;;5048529;28;20033;-69
2022/08/14 01:13:25;;;;;;;6.80;6.10;;;24.00;82.80;;;;;;5051865;28;20104;-70
2022/08/14 01:15:56;;;;;;;6.95;6.15;;;24.00;82.60;;;;;;5050560;28;20476;-70
2022/08/14 01:21:11;;;;;;;10.55;6.72;;;24.00;83.20;;;;;;5050543;28;20039;-70
2022/08/14 01:23:45;;;;;;;8.15;6.95;;;24.00;83.40;;;;;;5050900;28;20140;-70
2022/08/14 01:26:13;;;;;;;6.88;6.18;;;24.00;83.50;;;;;;5050166;28;20055;-71
2022/08/14 01:28:39;;;;;;;8.25;5.57;;;23.90;83.50;;;;;;5051356;28;20040;-70
2022/08/14 01:31:08;;;;;;;8.70;6.70;;;24.00;83.70;;;;;;5050928;28;20376;-70
2022/08/14 01:33:39;;;;;;;8.95;6.72;;;24.00;83.70;;;;;;5050314;28;20028;-71
2022/08/14 01:36:07;;;;;;;7.47;6.72;;;24.00;83.70;;;;;;5050805;28;20033;-70
2022/08/14 01:38:34;;;;;;;7.28;6.18;;;24.00;83.90;;;;;;5051233;28;20379;-70
2022/08/14 01:41:06;;;;;;;8.82;7.13;;;24.00;83.90;;;;;;5051079;28;20025;-70
2022/08/14 01:43:38;;;;;;;7.78;6.97;;;24.00;84.00;;;;;;5036286;28;20075;-70
2022/08/14 01:46:10;;;;;;;8.15;6.43;;;24.00;84.00;;;;;;5050967;28;20040;-70
2022/08/14 01:48:37;;;;;;;8.77;6.72;;;24.00;84.60;;;;;;5050671;28;20037;-70
2022/08/14 01:51:03;;;;;;;7.60;6.38;;;24.00;84.20;;;;;;5050408;28;20041;-70
2022/08/14 01:53:30;;;;;;;9.13;7.03;;;24.00;84.20;;;;;;5032641;28;20021;-70
2022/08/14 01:56:03;;;;;;;7.15;6.32;;;24.00;84.30;;;;;;5050177;28;20033;-70
2022/08/14 01:58:29;;;;;;;9.93;7.57;;;24.00;84.40;;;;;;5049108;28;20029;-71
2022/08/14 02:00:55;;;;;;;7.28;6.40;;;24.00;84.50;;;;;;5049878;28;20033;-71
2022/08/14 02:03:30;;;;;;;6.35;5.75;;;24.00;84.60;;;;;;5051091;28;20423;-71
2022/08/14 02:06:00;;;;;;;10.80;7.05;;;24.00;84.80;;;;;;5050249;28;20132;-70
2022/08/14 02:08:29;;;;;;;7.65;6.70;;;24.00;84.80;;;;;;5051413;28;20051;-70
2022/08/14 02:11:17;;;;;;;7.25;6.45;;;24.00;84.80;;;;;;5050422;28;20476;-70
2022/08/14 02:13:45;;;;;;;7.53;6.68;;;24.00;84.90;;;;;;5032716;28;20025;-70
2022/08/14 02:16:17;;;;;;;8.85;7.15;;;24.00;85.00;;;;;;5050015;28;20072;-70
2022/08/14 02:18:45;;;;;;;9.05;6.95;;;24.00;85.10;;;;;;5029359;28;20133;-70
2022/08/14 02:21:13;;;;;;;7.43;6.70;;;24.00;85.20;;;;;;5039180;28;20472;-71
2022/08/14 02:23:39;;;;;;;7.55;6.82;;;24.00;85.20;;;;;;5052249;28;20033;-72
2022/08/14 02:26:15;;;;;;;8.60;7.53;;;24.00;85.50;;;;;;5054595;28;20037;-71
2022/08/14 02:28:41;;;;;;;9.35;7.25;;;24.00;85.70;;;;;;5055115;28;20064;-71
2022/08/14 02:31:07;;;;;;;9.25;7.25;;;24.00;85.70;;;;;;5054399;28;20061;-71
2022/08/14 02:33:34;;;;;;;10.70;7.30;;;24.00;85.90;;;;;;5037283;28;20032;-70
2022/08/14 02:36:03;;;;;;;8.75;6.90;;;24.00;86.00;;;;;;5053517;28;20029;-71
2022/08/14 02:38:32;;;;;;;7.85;7.05;;;24.00;86.10;;;;;;5051742;28;20025;-71
2022/08/14 02:40:58;;;;;;;8.57;6.90;;;23.90;86.20;;;;;;5053048;28;20116;-71
2022/08/14 02:43:29;;;;;;;8.52;6.55;;;24.00;86.00;;;;;;5054642;28;20108;-71
2022/08/14 02:45:55;;;;;;;9.77;7.80;;;24.00;86.30;;;;;;5053348;28;20033;-71
2022/08/14 02:48:21;;;;;;;7.35;6.63;;;24.00;86.30;;;;;;5054879;28;20103;-72
2022/08/14 02:50:48;;;;;;;12.63;7.53;;;24.00;86.30;;;;;;5053349;28;20468;-71
2022/08/14 02:53:14;;;;;;;9.07;7.38;;;24.00;86.50;;;;;;5053091;28;20035;-71
2022/08/14 02:55:42;;;;;;;9.95;6.78;;;24.00;86.50;;;;;;5053982;28;20041;-71
2022/08/14 02:58:08;;;;;;;7.93;7.13;;;24.00;86.70;;;;;;5054162;28;20080;-71
2022/08/14 03:00:34;;;;;;;8.60;7.50;;;24.00;86.90;;;;;;5054186;28;20124;-70
2022/08/14 03:03:01;;;;;;;9.25;7.32;;;24.00;86.90;;;;;;5054168;28;20492;-70
2022/08/14 03:05:30;;;;;;;8.35;7.13;;;24.00;86.80;;;;;;5053169;28;20412;-70
2022/08/14 03:08:13;;;;;;;11.55;7.60;;;24.00;87.30;;;;;;5054741;28;20029;-71
2022/08/14 03:10:38;;;;;;;7.70;6.45;;;24.00;86.90;;;;;;5052830;28;20542;-70
2022/08/14 03:13:05;;;;;;;9.48;7.38;;;24.00;86.80;;;;;;5052938;28;20029;-70
2022/08/14 03:15:38;;;;;;;7.90;7.10;;;24.00;86.90;;;;;;5052332;28;20021;-70
2022/08/14 03:18:08;;;;;;;8.68;7.18;;;24.00;86.90;;;;;;5053247;28;20033;-70
2022/08/14 03:20:35;;;;;;;7.68;6.88;;;24.00;86.90;;;;;;5053167;28;20047;-70
2022/08/14 03:23:01;;;;;;;7.88;7.03;;;24.00;87.20;;;;;;5053387;28;20094;-71
2022/08/14 03:25:32;;;;;;;10.05;7.63;;;24.00;87.30;;;;;;5053150;28;20120;-71
2022/08/14 03:28:02;;;;;;;8.23;7.32;;;24.00;87.40;;;;;;5035942;28;20159;-70
2022/08/14 03:30:30;;;;;;;9.77;7.45;;;24.00;87.50;;;;;;5053322;28;20063;-70
2022/08/14 03:32:56;;;;;;;7.72;6.97;;;24.00;87.70;;;;;;5054249;28;20037;-70
2022/08/14 03:35:23;;;;;;;7.63;6.82;;;24.00;87.80;;;;;;5051789;28;20029;-70
2022/08/14 03:37:51;;;;;;;8.65;6.88;;;24.00;87.70;;;;;;5053957;28;20033;-70
2022/08/14 03:40:19;;;;;;;12.27;7.70;;;24.00;87.80;;;;;;5052405;28;20040;-71
2022/08/14 03:42:45;;;;;;;8.98;7.45;;;23.90;87.90;;;;;;5039789;28;20380;-70
2022/08/14 03:45:15;;;;;;;8.63;7.47;;;23.90;88.10;;;;;;5053614;28;20175;-71
2022/08/14 03:47:41;;;;;;;8.70;7.75;;;23.90;88.10;;;;;;5056372;28;20032;-70
2022/08/14 03:50:27;;;;;;;8.88;7.97;;;23.90;88.20;;;;;;5048770;28;20080;-70
2022/08/14 03:52:52;;;;;;;8.63;7.07;;;23.90;88.40;;;;;;5063914;28;20036;-70
2022/08/14 03:55:19;;;;;;;11.32;8.38;;;23.90;88.70;;;;;;5065398;28;20033;-70
2022/08/14 03:57:45;;;;;;;8.82;7.90;;;23.90;88.80;;;;;;5064437;28;20401;-70
2022/08/14 04:00:12;;;;;;;8.60;7.65;;;23.90;88.90;;;;;;5063060;28;20021;-70
2022/08/14 04:02:40;;;;;;;8.70;7.80;;;23.80;89.00;;;;;;5063211;28;20041;-70
2022/08/14 04:05:08;;;;;;;9.18;7.45;;;23.80;89.10;;;;;;5065351;28;20045;-70
2022/08/14 04:07:34;;;;;;;8.77;7.88;;;23.80;89.10;;;;;;5057915;28;20025;-70
2022/08/14 04:10:00;;;;;;;8.43;7.43;;;23.80;89.30;;;;;;5052272;28;20120;-71
2022/08/14 04:12:26;;;;;;;8.68;7.47;;;23.80;89.60;;;;;;5052759;28;20122;-71
2022/08/14 04:14:52;;;;;;;12.30;8.77;;;23.70;89.70;;;;;;5052645;28;20053;-71
2022/08/14 04:17:18;;;;;;;9.23;8.30;;;23.70;89.80;;;;;;5050395;28;20036;-71
2022/08/14 04:19:46;;;;;;;9.52;7.53;;;23.70;89.90;;;;;;5053328;28;20079;-71
2022/08/14 04:22:12;;;;;;;11.10;8.68;;;23.70;90.00;;;;;;5051474;28;20033;-71
2022/08/14 04:24:39;;;;;;;8.35;7.45;;;23.70;90.10;;;;;;5052598;28;20485;-72
2022/08/14 04:27:07;;;;;;;9.02;8.13;;;23.70;90.20;;;;;;5050909;28;20116;-71
2022/08/14 04:29:38;;;;;;;8.82;7.93;;;23.70;90.20;;;;;;5051799;28;20377;-71
2022/08/14 04:32:07;;;;;;;15.18;8.75;;;23.80;90.20;;;;;;5050755;28;20108;-71
2022/08/14 04:34:33;;;;;;;8.75;7.85;;;23.70;90.20;;;;;;5051719;28;20121;-71
2022/08/14 04:45:14;;;;;;;14.20;8.30;;;23.80;90.30;;;;;;5024173;28;20049;-70
2022/08/14 04:50:26;;;;;;;10.55;7.95;;;23.80;90.30;;;;;;5052525;28;20472;-70
2022/08/14 04:52:53;;;;;;;9.82;8.82;;;23.80;90.40;;;;;;5052696;28;20060;-70
2022/08/14 04:55:19;;;;;;;9.20;8.18;;;23.80;90.40;;;;;;5051906;28;20063;-70
2022/08/14 04:57:46;;;;;;;9.82;7.88;;;23.80;90.40;;;;;;5051062;28;20036;-70
2022/08/14 05:00:13;;;;;;;10.55;8.50;;;23.90;90.40;;;;;;5051441;28;20025;-70
2022/08/14 05:02:38;;;;;;;11.50;8.10;;;23.90;90.40;;;;;;5051823;28;20029;-71
2022/08/14 05:05:04;;;;;;;9.32;7.50;;;23.90;90.50;;;;;;5051949;28;20045;-71
2022/08/14 05:07:30;;;;;;;10.13;7.88;;;24.00;90.50;;;;;;5050536;28;20023;-71
2022/08/14 05:09:57;;;;;;;9.63;7.97;;;24.00;90.40;;;;;;5051750;28;20098;-71
2022/08/14 05:12:23;;;;;;;10.57;8.10;;;24.00;90.40;;;;;;5050995;28;20036;-71
2022/08/14 05:14:49;;;;;;;13.57;7.45;;;24.10;90.40;;;;;;5032250;28;20025;-71
2022/08/14 05:17:15;;;;;;;9.82;7.78;;;24.20;90.40;;;;;;5049540;28;21811;-71
2022/08/14 05:19:40;;;;;;;9.07;8.07;;;24.20;90.30;;;;;;5051300;28;20394;-72
2022/08/14 05:22:06;;;;;;;10.85;7.88;;;24.30;90.30;;;;;;5049605;28;20025;-70
2022/08/14 05:24:32;;;;;;;8.85;8.02;;;24.30;90.40;;;;;;5050897;28;20068;-70
2022/08/14 05:26:58;;;;;;;8.27;7.47;;;24.30;90.30;;;;;;5050728;28;20071;-70
2022/08/14 05:29:24;;;;;;;8.75;7.72;;;24.40;90.40;;;;;;5049756;28;20684;-71
2022/08/14 05:31:50;;;;;;;11.38;8.43;;;24.50;90.60;;;;;;5049709;28;20032;-71
2022/08/14 05:34:16;;;;;;;9.10;7.82;;;24.50;90.30;;;;;;5050439;28;20021;-72
2022/08/14 05:36:41;;;;;;;8.73;7.93;;;24.60;90.30;;;;;;5050291;28;20056;-71
2022/08/14 05:39:07;;;;;;;9.70;8.30;;;24.70;90.30;;;;;;5050363;28;20029;-71
2022/08/14 05:41:33;;;;;;;11.57;8.52;;;24.70;90.40;;;;;;5041057;28;20087;-71
2022/08/14 05:43:59;;;;;;;9.55;8.07;;;24.70;90.20;;;;;;5049789;28;20508;-71
2022/08/14 05:46:25;;;;;;;10.50;8.57;;;24.80;89.70;;;;;;5048571;28;20381;-71
2022/08/14 05:48:53;;;;;;;10.57;8.55;;;24.80;89.40;;;;;;5051780;28;20078;-72
2022/08/14 05:51:19;;;;;;;8.20;7.25;;;24.80;89.60;;;;;;5049665;28;20376;-73
2022/08/14 05:53:45;;;;;;;15.45;8.63;;;24.90;89.20;;;;;;5033395;28;20025;-72
2022/08/14 05:56:11;;;;;;;9.73;8.05;;;24.90;89.30;;;;;;5050164;28;20032;-72
2022/08/14 05:58:37;;;;;;;9.65;8.65;;;24.90;88.90;;;;;;5053645;28;20400;-72
2022/08/14 06:01:03;;;;;;;8.40;7.57;;;25.00;89.20;;;;;;5036787;28;20016;-73
2022/08/14 06:03:29;;;;;;;9.10;7.88;;;25.00;88.60;;;;;;5037356;28;20464;-72
2022/08/14 06:05:55;;;;;;;9.93;8.18;;;25.00;88.10;;;;;;5054068;28;20195;-70
2022/08/14 06:08:23;;;;;;;8.95;8.00;;;25.00;88.10;;;;;;5054738;28;20071;-70
2022/08/14 06:10:51;;;;;;;10.27;8.85;;;25.10;87.90;;;;;;5050858;28;20098;-69
2022/08/14 06:13:17;;;;;;;9.52;8.23;;;25.00;87.80;;;;;;5055082;28;20032;-71
2022/08/14 06:15:43;;;;;;;8.43;7.63;;;25.10;87.90;;;;;;5026377;28;20029;-69
2022/08/14 06:18:10;;;;;;;8.50;7.63;;;25.10;87.80;;;;;;5055583;28;20052;-69
2022/08/14 06:20:36;;;;;;;9.23;8.30;;;25.10;87.50;;;;;;5052642;28;20039;-69
2022/08/14 06:23:02;;;;;;;9.98;8.98;;;25.10;87.70;;;;;;5052601;28;20036;-69
2022/08/14 06:25:28;;;;;;;10.05;8.63;;;25.10;87.60;;;;;;5033071;28;20038;-69
2022/08/14 06:27:54;;;;;;;9.10;7.72;;;25.00;87.50;;;;;;5048771;28;20373;-66
2022/08/14 06:30:22;;;;;;;12.02;8.48;;;25.10;87.80;;;;;;5053450;28;20079;-70
2022/08/14 06:32:48;;;;;;;9.20;8.10;;;25.10;87.80;;;;;;5051942;28;20110;-71
2022/08/14 06:35:16;;;;;;;10.07;8.82;;;25.10;87.70;;;;;;5040820;28;20076;-72
2022/08/14 06:37:45;;;;;;;10.48;7.80;;;25.10;87.70;;;;;;5053738;28;20032;-71
2022/08/14 06:40:13;;;;;;;9.93;8.82;;;25.20;87.60;;;;;;5053802;28;20029;-71
2022/08/14 06:42:40;;;;;;;8.80;7.90;;;25.10;87.50;;;;;;5054670;28;20079;-71
2022/08/14 06:45:07;;;;;;;10.07;8.50;;;25.20;87.80;;;;;;5054776;28;20119;-71
2022/08/14 06:47:37;;;;;;;8.90;7.80;;;25.20;87.90;;;;;;5053820;28;20111;-72
2022/08/14 06:50:05;;;;;;;9.82;8.52;;;25.30;87.70;;;;;;5040170;28;20029;-71
2022/08/14 06:52:33;;;;;;;10.20;8.32;;;25.30;87.50;;;;;;5053327;28;20476;-71
2022/08/14 06:54:58;;;;;;;9.77;8.73;;;25.30;87.20;;;;;;5025634;28;20400;-72
2022/08/14 06:57:24;;;;;;;10.68;8.77;;;25.30;87.40;;;;;;5052761;28;20116;-72
2022/08/14 06:59:50;;;;;;;10.80;8.45;;;25.40;87.20;;;;;;5053697;28;20104;-72
2022/08/14 07:07:47;;;;;;;8.80;7.90;;;25.50;86.80;;;;;;5034854;28;20036;-71
2022/08/14 07:10:13;;;;;;;9.43;8.30;;;25.60;86.20;;;;;;5047643;28;20033;-71
2022/08/14 07:12:39;;;;;;;9.57;8.23;;;25.60;86.10;;;;;;5046625;28;20025;-72
2022/08/14 07:15:05;;;;;;;9.30;7.78;;;25.70;86.30;;;;;;5033151;28;21441;-71
2022/08/14 07:17:31;;;;;;;9.20;7.93;;;25.70;86.40;;;;;;5051871;28;20021;-71
2022/08/14 07:19:56;;;;;;;8.23;7.43;;;25.80;85.60;;;;;;5029940;28;20035;-72
2022/08/14 07:22:22;;;;;;;10.50;8.40;;;25.80;86.00;;;;;;5049129;28;20056;-71
2022/08/14 07:24:48;;;;;;;10.63;8.63;;;25.90;85.80;;;;;;5051794;28;20120;-71
2022/08/14 07:27:14;;;;;;;8.38;7.50;;;25.90;86.30;;;;;;5034396;28;20033;-71
2022/08/14 07:29:39;;;;;;;10.45;8.52;;;26.00;85.30;;;;;;5049997;28;20029;-71
2022/08/14 07:32:05;;;;;;;9.32;8.43;;;26.00;84.90;;;;;;5052203;28;20021;-71
2022/08/14 07:34:31;;;;;;;9.48;8.18;;;26.10;85.30;;;;;;5053235;28;20545;-71
2022/08/14 07:36:57;;;;;;;10.95;8.02;;;26.10;85.10;;;;;;5053240;28;20124;-69
2022/08/14 07:39:22;;;;;;;9.40;7.78;;;26.20;84.80;;;;;;5052763;28;20447;-70
2022/08/14 07:41:48;;;;;;;8.98;7.97;;;26.30;84.20;;;;;;5053281;28;20086;-70
2022/08/14 07:44:14;;;;;;;8.90;7.82;;;26.40;83.80;;;;;;5053065;28;20033;-70
2022/08/14 07:46:40;;;;;;;8.50;7.60;;;26.40;83.10;;;;;;5053103;28;20377;-70
2022/08/14 07:49:06;;;;;;;9.00;7.75;;;26.50;82.90;;;;;;5053111;28;20358;-71
2022/08/14 07:51:32;;;;;;;8.65;7.75;;;26.50;82.80;;;;;;5053304;28;20028;-71
2022/08/14 07:53:58;;;;;;;8.88;7.97;;;26.60;82.60;;;;;;5053685;28;20049;-71
2022/08/14 07:56:24;;;;;;;8.70;7.80;;;26.70;82.30;;;;;;5053145;28;20075;-71
2022/08/14 07:58:51;;;;;;;8.85;8.02;;;26.70;81.80;;;;;;5053567;28;20040;-71
2022/08/14 08:01:17;;;;;;;8.43;6.95;;;26.80;81.90;;;;;;5052482;28;20063;-71
2022/08/14 08:03:48;;;;;;;8.68;7.18;;;26.90;81.60;;;;;;5053073;28;20021;-71
2022/08/14 08:06:15;;;;;;;13.10;7.93;;;27.00;81.60;;;;;;5052870;28;20045;-71
2022/08/14 08:08:42;;;;;;;9.13;6.90;;;27.00;81.00;;;;;;5053685;28;20476;-71
2022/08/14 08:11:12;;;;;;;9.10;7.43;;;27.10;80.80;;;;;;5052559;28;20066;-71
2022/08/14 08:13:41;;;;;;;8.20;7.10;;;27.20;80.10;;;;;;5053246;28;20043;-71
2022/08/14 08:16:07;;;;;;;8.32;7.15;;;27.20;79.70;;;;;;5053144;28;20636;-71
2022/08/14 08:18:34;;;;;;;8.30;7.30;;;27.20;79.40;;;;;;5053239;28;20100;-71
2022/08/14 08:21:01;;;;;;;8.25;6.93;;;27.30;78.90;;;;;;5051091;28;20025;-71
2022/08/14 08:23:28;;;;;;;7.72;6.82;;;27.40;78.70;;;;;;5052290;28;20484;-71
2022/08/14 08:25:57;;;;;;;7.03;6.32;;;27.50;78.70;;;;;;5053076;28;20408;-71
2022/08/14 08:28:26;;;;;;;7.63;6.82;;;27.50;78.00;;;;;;5052910;28;20032;-71
2022/08/14 08:30:57;;;;;;;9.02;7.07;;;27.60;77.10;;;;;;5051785;28;20143;-70
2022/08/14 08:33:26;;;;;;;7.47;6.78;;;27.70;76.90;;;;;;5052551;28;20025;-69
2022/08/14 08:35:56;;;;;;;7.18;6.47;;;27.80;76.50;;;;;;5049076;28;20029;-70
2022/08/14 08:38:25;;;;;;;7.28;6.55;;;27.70;75.70;;;;;;5050966;28;20110;-70
2022/08/14 08:40:53;;;;;;;11.20;7.47;;;27.80;76.00;;;;;;5049371;28;20021;-70
2022/08/14 08:43:34;;;;;;;8.45;6.63;;;27.90;75.80;;;;;;5052866;28;20028;-70
2022/08/14 08:46:10;;;;;;;8.82;7.63;;;28.00;75.60;;;;;;5033035;28;20037;-71
2022/08/14 08:48:48;;;;;;;10.02;6.50;;;28.00;74.90;;;;;;5034193;28;20388;-71
2022/08/14 08:51:28;;;;;;;8.40;6.70;;;28.10;75.10;;;;;;5051879;28;20033;-71
2022/08/14 08:54:02;;;;;;;7.22;6.53;;;28.10;75.00;;;;;;5051980;28;20045;-70
2022/08/14 08:56:46;;;;;;;6.40;5.80;;;28.20;74.10;;;;;;5050150;28;20040;-71
2022/08/14 08:59:26;;;;;;;6.97;6.20;;;28.20;74.30;;;;;;5049456;28;20033;-70
2022/08/14 09:01:57;;;;;;;9.10;6.25;;;28.20;74.10;;;;;;5049542;28;20276;-70
2022/08/14 09:04:25;;;;;;;8.45;6.47;;;28.30;74.30;;;;;;5051981;28;20041;-71
2022/08/14 09:06:51;;;;;;;7.65;6.47;;;28.40;73.40;;;;;;5050577;28;20056;-70
2022/08/14 09:09:24;;;;;;;8.27;6.30;;;28.40;73.30;;;;;;5051904;28;20029;-71
2022/08/14 09:11:54;;;;;;;8.07;5.93;;;28.40;73.10;;;;;;5033075;28;20024;-71
2022/08/14 09:14:21;;;;;;;7.20;5.82;;;28.60;73.30;;;;;;5051800;28;20021;-71
2022/08/14 09:16:51;;;;;;;9.82;6.05;;;28.60;71.80;;;;;;5050920;28;20041;-71
2022/08/14 09:19:20;;;;;;;6.40;5.30;;;28.60;71.10;;;;;;5036489;28;20381;-69
2022/08/14 09:21:46;;;;;;;6.97;5.32;;;28.70;71.60;;;;;;5044305;28;20037;-69
2022/08/14 09:24:13;;;;;;;7.97;5.43;;;28.80;71.00;;;;;;5052050;28;20052;-70
2022/08/14 09:26:40;;;;;;;6.70;5.85;;;28.80;70.70;;;;;;5047807;28;20032;-70
2022/08/14 09:29:07;;;;;;;8.15;5.75;;;28.90;70.50;;;;;;5051414;28;20037;-69
2022/08/14 09:31:34;;;;;;;7.00;5.20;;;28.90;70.60;;;;;;5048710;28;20029;-68
2022/08/14 09:34:07;;;;;;;5.93;4.97;;;29.00;70.00;;;;;;5034265;28;20121;-69
2022/08/14 09:37:05;;;;;;;6.53;5.22;;;29.00;70.10;;;;;;5036765;28;20026;-69
2022/08/14 09:40:23;;;;;;;7.10;5.47;;;29.10;69.60;;;;;;5050534;28;20036;-69
2022/08/14 09:43:09;;;;;;;8.50;5.93;;;29.20;69.30;;;;;;4988537;28;20026;-70
2022/08/14 09:45:46;;;;;;;9.50;5.80;;;29.20;69.40;;;;;;5026832;28;20416;-69
2022/08/14 09:48:21;;;;;;;9.07;5.03;;;29.20;69.10;;;;;;5050498;28;20063;-69
2022/08/14 09:50:48;;;;;;;5.50;4.53;;;29.30;68.80;;;;;;5049584;28;20491;-69
2022/08/14 09:53:31;;;;;;;7.05;4.95;;;29.40;68.40;;;;;;5049510;28;20033;-69
2022/08/14 09:55:58;;;;;;;8.90;5.63;;;29.40;68.70;;;;;;5047663;28;20375;-69
2022/08/14 09:58:35;;;;;;;5.97;5.18;;;29.60;69.30;;;;;;5049338;28;20040;-69
2022/08/14 10:01:12;;;;;;;8.88;5.40;;;29.80;69.20;;;;;;5049670;28;20044;-69
2022/08/14 10:03:48;;;;;;;4.95;4.45;;;29.90;69.40;;;;;;5049452;28;20048;-68
2022/08/14 10:06:17;;;;;;;6.78;4.47;;;30.10;68.10;;;;;;5048474;28;20068;-70
2022/08/14 10:08:45;;;;;;;4.97;3.88;;;30.20;67.30;;;;;;5043655;28;20037;-69
2022/08/14 10:11:18;;;;;;;5.45;4.43;;;30.20;66.20;;;;;;5048068;28;20037;-69
2022/08/14 10:13:46;;;;;;;7.20;4.57;;;30.30;66.00;;;;;;5048784;28;20079;-69
2022/08/14 10:16:13;;;;;;;7.38;4.22;;;30.30;65.60;;;;;;5047880;28;20063;-70
2022/08/14 10:18:39;;;;;;;6.78;3.45;;;30.40;64.30;;;;;;5049408;28;20037;-70
2022/08/14 10:21:08;;;;;;;7.32;4.10;;;30.50;64.00;;;;;;5042106;28;20021;-69
2022/08/14 10:23:48;;;;;;;4.65;4.25;;;30.50;63.70;;;;;;5046820;28;20032;-69
2022/08/14 10:26:17;;;;;;;5.13;3.85;;;30.50;63.00;;;;;;5050473;28;20437;-69
2022/08/14 10:28:45;;;;;;;6.15;4.00;;;30.50;62.00;;;;;;5036458;28;20060;-69
2022/08/14 10:31:28;;;;;;;7.75;3.72;;;30.50;62.30;;;;;;5050073;28;20056;-69
2022/08/14 10:34:05;;;;;;;4.75;3.90;;;30.50;61.90;;;;;;5041480;28;20159;-69
2022/08/14 10:36:34;;;;;;;4.40;3.67;;;30.50;61.40;;;;;;5048180;28;20036;-69
2022/08/14 10:39:04;;;;;;;5.45;3.58;;;30.50;61.20;;;;;;5049202;28;20055;-70
2022/08/14 10:41:38;;;;;;;6.65;4.28;;;30.50;60.80;;;;;;5049275;28;20025;-69
2022/08/14 10:44:08;;;;;;;3.90;3.50;;;30.60;60.90;;;;;;5049899;28;20067;-69
2022/08/14 10:46:44;;;;;;;5.10;3.83;;;30.50;60.40;;;;;;5052721;28;20033;-69
2022/08/14 10:49:23;;;;;;;6.10;4.45;;;30.60;60.90;;;;;;5052649;28;20032;-69
2022/08/14 10:52:07;;;;;;;7.45;4.10;;;30.60;61.00;;;;;;5050744;28;20040;-68
2022/08/14 10:54:44;;;;;;;5.55;3.90;;;30.60;60.80;;;;;;5046280;28;20116;-68
2022/08/14 10:57:34;;;;;;;5.57;4.03;;;30.60;61.30;;;;;;5048678;28;20029;-68
2022/08/14 11:00:12;;;;;;;6.35;3.78;;;30.60;61.10;;;;;;5049946;28;20037;-68
2022/08/14 11:02:39;;;;;;;7.30;4.20;;;30.70;60.70;;;;;;5052374;28;20056;-68
2022/08/14 11:05:17;;;;;;;5.45;4.05;;;30.80;60.90;;;;;;5051912;28;20123;-69
2022/08/14 11:07:54;;;;;;;8.45;4.28;;;30.80;60.50;;;;;;5050953;28;20037;-68
2022/08/14 11:10:22;;;;;;;8.32;3.90;;;30.80;60.30;;;;;;5051712;28;20094;-68
2022/08/14 11:12:50;;;;;;;6.63;4.35;;;30.80;60.40;;;;;;5052550;28;20041;-68
2022/08/14 11:15:18;;;;;;;6.43;4.53;;;30.80;60.20;;;;;;5050913;28;20503;-68
2022/08/14 11:17:49;;;;;;;5.05;3.95;;;30.90;60.40;;;;;;5036066;28;20556;-68
2022/08/14 11:20:17;;;;;;;4.32;3.75;;;30.90;60.20;;;;;;5034388;28;20029;-67
2022/08/14 11:22:44;;;;;;;5.10;3.75;;;30.90;60.50;;;;;;5051771;28;20029;-68
2022/08/14 11:25:12;;;;;;;4.85;3.80;;;30.90;60.40;;;;;;5052219;28;20515;-67
2022/08/14 11:27:43;;;;;;;7.03;3.95;;;31.00;59.80;;;;;;5050456;28;20048;-68
2022/08/14 11:30:13;;;;;;;6.18;3.83;;;31.10;59.80;;;;;;5051492;28;20086;-68
2022/08/14 11:32:41;;;;;;;4.45;3.97;;;31.10;60.20;;;;;;5051578;28;20120;-68
2022/08/14 11:35:11;;;;;;;4.20;3.72;;;31.20;59.60;;;;;;5052120;28;20020;-68
2022/08/14 11:37:38;;;;;;;6.72;3.80;;;31.20;59.00;;;;;;5051981;28;20029;-68
2022/08/14 11:40:13;;;;;;;4.35;3.92;;;31.20;58.60;;;;;;5051928;28;20025;-69
2022/08/14 11:42:39;;;;;;;4.57;4.10;;;31.20;57.60;;;;;;5050634;28;20055;-68
2022/08/14 11:45:05;;;;;;;5.80;4.22;;;31.20;57.80;;;;;;5051696;28;20037;-68
2022/08/14 11:47:37;;;;;;;6.88;3.80;;;31.20;57.20;;;;;;5051419;28;20111;-68
2022/08/14 11:50:18;;;;;;;5.70;3.88;;;31.20;57.40;;;;;;5057426;28;20542;-68
2022/08/14 11:52:45;;;;;;;5.95;3.80;;;31.20;57.40;;;;;;5053212;28;20029;-69
2022/08/14 11:55:14;;;;;;;5.63;4.05;;;31.20;57.30;;;;;;5050759;28;20549;-69
2022/08/14 11:57:40;;;;;;;5.88;4.03;;;31.20;57.50;;;;;;5051307;28;20108;-69
2022/08/14 12:00:09;;;;;;;4.63;3.92;;;31.20;57.20;;;;;;5052380;28;20472;-69
2022/08/14 12:02:36;;;;;;;7.40;4.40;;;31.20;57.20;;;;;;5050832;28;20381;-69
2022/08/14 12:05:03;;;;;;;4.32;3.90;;;31.20;57.10;;;;;;5043281;28;20045;-68
2022/08/14 12:07:28;;;;;;;7.00;4.18;;;31.30;57.80;;;;;;5050666;28;20082;-68
2022/08/14 12:09:55;;;;;;;6.78;4.07;;;31.30;57.50;;;;;;5051894;28;20029;-68
2022/08/14 12:12:23;;;;;;;5.03;3.92;;;31.30;57.70;;;;;;5048500;28;20037;-68
2022/08/14 12:14:56;;;;;;;4.72;4.10;;;31.40;57.40;;;;;;5045988;28;20048;-68
2022/08/14 12:17:26;;;;;;;7.80;4.38;;;31.40;57.40;;;;;;5033846;28;20025;-70
2022/08/14 12:19:55;;;;;;;7.68;5.13;;;31.30;57.20;;;;;;5044046;28;20469;-68
2022/08/14 12:22:34;;;;;;;7.32;4.60;;;31.40;57.30;;;;;;5047145;28;20028;-70
2022/08/14 12:25:01;;;;;;;6.57;3.97;;;31.50;57.70;;;;;;5050927;28;20037;-70
2022/08/14 12:27:43;;;;;;;7.45;4.18;;;31.50;57.00;;;;;;5046517;28;20021;-69
2022/08/14 12:30:12;;;;;;;5.28;4.43;;;31.50;57.30;;;;;;5047217;28;20037;-69
2022/08/14 12:32:42;;;;;;;6.75;4.75;;;31.50;56.80;;;;;;5050897;28;20040;-70
2022/08/14 12:35:09;;;;;;;5.40;4.43;;;31.50;56.30;;;;;;5051593;28;20040;-72
2022/08/14 12:37:35;;;;;;;4.53;4.13;;;31.50;55.70;;;;;;5047954;28;20364;-70
2022/08/14 12:40:14;;;;;;;6.32;4.25;;;31.60;55.70;;;;;;5050891;28;20033;-70
2022/08/14 12:42:41;;;;;;;5.55;4.35;;;31.70;56.20;;;;;;5050043;28;20029;-70
2022/08/14 12:45:10;;;;;;;5.05;4.45;;;31.80;55.90;;;;;;5047268;28;20052;-70
2022/08/14 12:47:37;;;;;;;5.63;4.28;;;31.90;55.50;;;;;;5050711;28;20033;-70
2022/08/14 12:50:03;;;;;;;6.38;4.60;;;32.00;55.50;;;;;;5048274;28;20036;-70
2022/08/14 12:52:40;;;;;;;4.22;3.83;;;32.10;55.60;;;;;;5049301;28;20017;-70
2022/08/14 12:55:14;;;;;;;5.80;4.07;;;32.10;56.10;;;;;;5050435;28;20079;-69
2022/08/14 12:57:45;;;;;;;5.10;3.95;;;32.20;55.90;;;;;;5051059;28;20110;-69
2022/08/14 13:00:16;;;;;;;6.07;4.50;;;32.30;55.20;;;;;;5048905;28;20033;-70
2022/08/14 13:02:43;;;;;;;5.20;4.20;;;32.40;54.70;;;;;;5050404;28;20033;-69
2022/08/14 13:05:11;;;;;;;7.57;3.92;;;32.50;54.60;;;;;;5050181;28;20051;-70
2022/08/14 13:07:39;;;;;;;5.32;4.00;;;32.60;54.30;;;;;;5049855;28;20021;-70
2022/08/14 13:10:08;;;;;;;5.80;4.53;;;32.70;53.70;;;;;;5048943;28;20023;-70
2022/08/14 13:12:37;;;;;;;4.30;3.75;;;32.70;53.10;;;;;;5050825;28;20532;-69
2022/08/14 13:15:08;;;;;;;6.15;4.10;;;32.70;53.10;;;;;;5036918;28;20116;-70